createdAt,value
2022-08-05T00:00:53.764Z,23.10
2022-08-05T00:03:20.410Z,23.20
2022-08-05T00:06:05.771Z,22.90
2022-08-05T00:08:36.387Z,24.10
2022-08-05T00:11:05.196Z,24.90
2022-08-05T00:13:47.249Z,22.70
2022-08-05T00:16:20.195Z,25.70
2022-08-05T00:19:04.045Z,25.20
2022-08-05T00:21:30.872Z,23.80
2022-08-05T00:24:10.139Z,22.50
2022-08-05T00:26:38.286Z,22.50
2022-08-05T00:29:05.061Z,25.20
2022-08-05T00:31:54.131Z,22.50
2022-08-05T00:34:54.360Z,23.00
2022-08-05T00:37:13.150Z,23.40
2022-08-05T00:39:57.399Z,22.90
2022-08-05T00:42:36.651Z,22.30
2022-08-05T00:45:04.769Z,22.30
2022-08-05T00:47:56.234Z,22.30
2022-08-05T00:50:21.944Z,23.80
2022-08-05T00:52:53.310Z,22.00
2022-08-05T00:55:20.197Z,21.80
2022-08-05T00:57:58.812Z,21.80
2022-08-05T01:00:27.426Z,24.00
2022-08-05T01:02:54.625Z,21.50
2022-08-05T01:05:21.571Z,21.50
2022-08-05T01:08:30.362Z,21.30
2022-08-05T01:10:36.989Z,22.80
2022-08-05T01:13:13.415Z,21.50
2022-08-05T01:15:53.196Z,21.30
2022-08-05T01:18:24.175Z,21.30
2022-08-05T01:20:54.159Z,22.20
2022-08-05T01:23:34.803Z,22.00
2022-08-05T01:26:04.708Z,21.20
2022-08-05T01:28:37.059Z,21.20
2022-08-05T01:31:16.757Z,21.20
2022-08-05T01:33:49.312Z,21.20
2022-08-05T01:36:28.053Z,21.20
2022-08-05T01:38:56.082Z,22.30
2022-08-05T01:41:25.560Z,22.30
2022-08-05T01:43:53.656Z,23.50
2022-08-05T01:46:42.716Z,21.30
2022-08-05T01:49:22.955Z,21.30
2022-08-05T01:51:52.089Z,21.50
2022-08-05T01:54:19.720Z,23.50
2022-08-05T01:58:10.132Z,22.70
2022-08-05T01:59:40.673Z,22.20
2022-08-05T02:02:14.175Z,22.00
2022-08-05T02:04:43.017Z,22.10
2022-08-05T02:07:21.636Z,22.00
2022-08-05T02:09:49.621Z,22.00
2022-08-05T02:12:25.862Z,22.00
2022-08-05T02:15:03.146Z,21.80
2022-08-05T02:18:28.204Z,21.70
2022-08-05T02:20:22.318Z,22.40
2022-08-05T02:22:55.001Z,21.70
2022-08-05T02:25:24.674Z,23.40
2022-08-05T02:27:57.896Z,21.50
2022-08-05T02:30:30.566Z,21.40
2022-08-05T02:32:58.072Z,21.40
2022-08-05T02:35:28.164Z,22.00
2022-08-05T02:38:05.207Z,21.10
2022-08-05T02:40:37.549Z,21.10
2022-08-05T02:43:07.297Z,21.00
2022-08-05T02:45:52.411Z,22.30
2022-08-05T02:48:28.815Z,21.00
2022-08-05T02:50:58.717Z,22.10
2022-08-05T02:53:25.623Z,20.80
2022-08-05T02:56:00.292Z,20.80
2022-08-05T02:58:30.279Z,20.80
2022-08-05T03:00:59.097Z,20.80
2022-08-05T03:03:26.387Z,20.60
2022-08-05T03:06:55.097Z,20.60
2022-08-05T03:08:42.609Z,20.60
2022-08-05T03:11:57.495Z,20.40
2022-08-05T03:14:07.909Z,20.40
2022-08-05T03:16:35.780Z,20.30
2022-08-05T03:19:08.778Z,20.40
2022-08-05T03:21:49.633Z,21.50
2022-08-05T03:24:17.705Z,21.40
2022-08-05T03:26:54.312Z,20.30
2022-08-05T03:29:21.994Z,20.60
2022-08-05T03:31:56.705Z,20.40
2022-08-05T03:34:27.568Z,20.30
2022-08-05T03:36:55.444Z,22.10
2022-08-05T03:39:27.078Z,21.40
2022-08-05T03:41:56.335Z,20.70
2022-08-05T03:44:23.833Z,20.60
2022-08-05T03:46:50.557Z,20.10
2022-08-05T03:49:17.323Z,21.80
2022-08-05T03:52:39.069Z,20.20
2022-08-05T03:55:51.690Z,20.20
2022-08-05T03:57:42.629Z,18.50
2022-08-05T04:00:15.952Z,22.40
2022-08-05T04:02:57.764Z,20.10
2022-08-05T04:05:33.928Z,21.60
2022-08-05T04:08:05.770Z,20.10
2022-08-05T04:10:52.028Z,21.70
2022-08-05T04:13:21.661Z,20.10
2022-08-05T04:16:03.331Z,20.00
2022-08-05T04:18:32.327Z,20.10
2022-08-05T04:21:01.760Z,20.20
2022-08-05T04:23:58.374Z,23.10
2022-08-05T04:26:17.559Z,20.20
2022-08-05T04:28:51.235Z,22.50
2022-08-05T04:31:19.265Z,22.40
2022-08-05T04:34:18.975Z,19.90
2022-08-05T04:36:46.570Z,19.90
2022-08-05T04:39:20.522Z,22.30
2022-08-05T04:41:48.009Z,19.80
2022-08-05T04:44:15.267Z,20.00
2022-08-05T04:46:48.450Z,19.80
2022-08-05T04:49:15.376Z,19.90
2022-08-05T04:51:45.231Z,21.10
2022-08-05T04:54:12.348Z,20.00
2022-08-05T04:56:39.426Z,20.10
2022-08-05T04:59:21.770Z,20.10
2022-08-05T05:02:06.744Z,20.10
2022-08-05T05:04:35.145Z,22.20
2022-08-05T05:07:04.978Z,20.40
2022-08-05T05:09:37.463Z,20.60
2022-08-05T05:12:05.242Z,21.80
2022-08-05T05:14:33.065Z,21.00
2022-08-05T05:17:03.706Z,21.20
2022-08-05T05:19:37.126Z,21.30
2022-08-05T05:22:24.137Z,21.60
2022-08-05T05:24:57.186Z,24.10
2022-08-05T05:27:45.888Z,22.00
2022-08-05T05:30:29.263Z,22.20
2022-08-05T05:33:03.726Z,25.00
2022-08-05T05:35:43.260Z,22.70
2022-08-05T05:38:13.178Z,22.90
2022-08-05T05:40:47.931Z,22.00
2022-08-05T05:43:28.144Z,24.40
2022-08-05T05:46:03.477Z,23.40
2022-08-05T05:48:32.002Z,25.50
2022-08-05T05:51:14.947Z,23.50
2022-08-05T05:53:54.433Z,24.70
2022-08-05T05:56:32.563Z,23.70
2022-08-05T05:59:07.749Z,23.70
2022-08-05T06:01:37.910Z,23.80
2022-08-05T06:04:05.508Z,23.80
2022-08-05T06:06:34.611Z,23.80
2022-08-05T06:09:03.218Z,23.70
2022-08-05T06:11:31.308Z,23.70
2022-08-05T06:13:58.054Z,24.10
2022-08-05T06:16:33.073Z,23.70
2022-08-05T06:19:05.803Z,23.90
2022-08-05T06:21:36.657Z,24.10
2022-08-05T06:24:04.538Z,23.80
2022-08-05T06:26:33.948Z,24.00
2022-08-05T06:29:03.697Z,24.10
2022-08-05T06:31:33.795Z,24.20
2022-08-05T06:34:07.071Z,24.40
2022-08-05T06:36:37.402Z,24.40
2022-08-05T06:39:24.583Z,24.50
2022-08-05T06:41:54.096Z,24.60
2022-08-05T06:44:22.073Z,26.10
2022-08-05T06:46:50.829Z,24.70
2022-08-05T06:49:18.941Z,24.70
2022-08-05T06:51:48.224Z,24.60
2022-08-05T06:54:19.137Z,25.40
2022-08-05T06:56:54.950Z,24.50
2022-08-05T06:59:38.806Z,24.50
2022-08-05T07:02:08.949Z,24.50
2022-08-05T07:04:35.770Z,26.80
2022-08-05T07:07:03.322Z,24.70
2022-08-05T07:09:40.528Z,24.60
2022-08-05T07:12:29.867Z,24.70
2022-08-05T07:15:34.122Z,24.70
2022-08-05T07:18:08.422Z,24.80
2022-08-05T07:20:39.705Z,25.60
2022-08-05T07:23:06.516Z,24.80
2022-08-05T07:25:55.149Z,24.80
2022-08-05T07:28:20.107Z,24.80
2022-08-05T07:30:52.752Z,25.50
2022-08-05T07:33:36.866Z,25.20
2022-08-05T07:36:20.785Z,24.90
2022-08-05T07:38:49.134Z,25.00
2022-08-05T07:42:07.698Z,25.10
2022-08-05T07:44:19.291Z,25.10
2022-08-05T07:46:48.552Z,25.30
2022-08-05T07:49:18.140Z,25.00
2022-08-05T07:51:53.896Z,25.20
2022-08-05T07:54:31.169Z,25.20
2022-08-05T07:57:22.478Z,25.20
2022-08-05T07:59:48.779Z,25.10
2022-08-05T08:02:17.631Z,25.80
2022-08-05T08:04:49.138Z,26.70
2022-08-05T08:07:22.740Z,25.40
2022-08-05T08:09:50.418Z,25.50
2022-08-05T08:12:36.824Z,25.50
2022-08-05T08:15:13.848Z,27.10
2022-08-05T08:17:46.157Z,25.40
2022-08-05T08:20:44.402Z,25.30
2022-08-05T08:23:04.117Z,25.50
2022-08-05T08:26:00.809Z,25.50
2022-08-05T08:28:18.834Z,25.60
2022-08-05T08:31:02.692Z,25.60
2022-08-05T08:33:38.079Z,25.70
2022-08-05T08:36:38.582Z,25.70
2022-08-05T08:38:56.029Z,25.90
2022-08-05T08:41:26.199Z,26.00
2022-08-05T08:45:19.056Z,26.00
2022-08-05T08:47:00.164Z,26.20
2022-08-05T08:50:22.604Z,26.30
2022-08-05T08:52:17.379Z,26.40
2022-08-05T08:54:44.685Z,26.40
2022-08-05T08:57:13.438Z,26.50
2022-08-05T08:59:41.950Z,26.50
2022-08-05T09:02:14.634Z,26.60
2022-08-05T09:04:57.808Z,26.50
2022-08-05T09:07:39.756Z,26.60
2022-08-05T09:10:17.737Z,26.70
2022-08-05T09:12:45.613Z,26.70
2022-08-05T09:15:17.854Z,26.70
2022-08-05T09:17:49.727Z,26.90
2022-08-05T09:20:36.224Z,27.00
2022-08-05T09:23:09.589Z,27.10
2022-08-05T09:26:03.367Z,27.20
2022-08-05T09:28:32.587Z,27.30
2022-08-05T09:31:18.220Z,27.40
2022-08-05T09:33:51.396Z,27.40
2022-08-05T09:36:20.741Z,27.40
2022-08-05T09:39:02.436Z,27.50
2022-08-05T09:41:33.157Z,27.60
2022-08-05T09:44:05.056Z,27.70
2022-08-05T09:46:33.638Z,27.70
2022-08-05T09:49:19.386Z,27.80
2022-08-05T09:51:49.414Z,27.80
2022-08-05T09:54:28.759Z,27.80
2022-08-05T09:56:57.545Z,28.00
2022-08-05T09:59:27.554Z,28.10
2022-08-05T10:01:57.946Z,28.30
2022-08-05T10:04:35.296Z,28.40
2022-08-05T10:07:20.187Z,28.50
2022-08-05T10:10:00.308Z,28.70
2022-08-05T10:12:49.841Z,26.80
2022-08-05T10:15:25.773Z,28.90
2022-08-05T10:18:08.099Z,28.90
2022-08-05T10:20:36.345Z,28.80
2022-08-05T10:23:03.418Z,28.80
2022-08-05T10:25:30.219Z,28.70
2022-08-05T10:28:13.723Z,28.50
2022-08-05T10:32:47.440Z,28.40
2022-08-05T10:33:34.194Z,28.60
2022-08-05T10:36:05.737Z,28.60
2022-08-05T10:38:33.709Z,28.60
2022-08-05T10:41:13.725Z,28.60
2022-08-05T10:43:59.578Z,28.50
2022-08-05T10:46:42.526Z,28.50
2022-08-05T10:49:16.486Z,28.40
2022-08-05T10:51:57.549Z,28.50
2022-08-05T10:54:47.010Z,28.60
2022-08-05T10:57:25.246Z,28.80
2022-08-05T11:00:17.887Z,28.90
2022-08-05T11:03:23.701Z,29.20
2022-08-05T11:06:03.945Z,29.60
2022-08-05T11:08:38.227Z,30.00
2022-08-05T11:11:24.924Z,30.30
2022-08-05T11:14:11.412Z,30.50
2022-08-05T11:16:56.719Z,30.70
2022-08-05T11:20:10.643Z,30.60
2022-08-05T11:22:34.725Z,30.70
2022-08-05T11:26:05.735Z,30.90
2022-08-05T11:28:10.134Z,30.80
2022-08-05T11:30:56.131Z,30.90
2022-08-05T11:33:43.908Z,31.00
2022-08-05T11:36:13.802Z,31.20
2022-08-05T11:38:46.105Z,31.50
2022-08-05T11:41:56.155Z,31.60
2022-08-05T11:44:08.280Z,31.60
2022-08-05T11:46:36.606Z,31.50
2022-08-05T11:49:05.255Z,31.30
2022-08-05T11:51:44.555Z,31.20
2022-08-05T11:54:34.913Z,31.30
2022-08-05T11:57:08.077Z,31.30
2022-08-05T11:59:50.690Z,31.40
2022-08-05T12:02:30.701Z,31.50
2022-08-05T12:05:00.104Z,31.60
2022-08-05T12:08:03.467Z,31.70
2022-08-05T12:10:21.408Z,31.70
2022-08-05T12:12:59.585Z,31.60
2022-08-05T12:15:38.548Z,31.60
2022-08-05T12:18:11.050Z,31.60
2022-08-05T12:20:39.037Z,31.80
2022-08-05T12:23:10.037Z,31.70
2022-08-05T12:25:53.470Z,31.80
2022-08-05T12:28:33.138Z,31.90
2022-08-05T12:31:02.178Z,31.80
2022-08-05T12:33:36.613Z,31.80
2022-08-05T12:36:07.126Z,31.70
2022-08-05T12:38:39.885Z,31.60
2022-08-05T12:41:13.141Z,31.60
2022-08-05T12:43:57.468Z,31.70
2022-08-05T12:46:29.245Z,31.80
2022-08-05T12:49:15.035Z,31.90
2022-08-05T12:52:10.415Z,31.90
2022-08-05T12:54:33.102Z,31.80
2022-08-05T12:57:01.237Z,31.80
2022-08-05T12:59:46.907Z,31.90
2022-08-05T13:02:30.568Z,31.90
2022-08-05T13:04:57.543Z,31.90
2022-08-05T13:07:56.047Z,32.10
2022-08-05T13:10:14.084Z,32.10
2022-08-05T13:12:51.071Z,32.00
2022-08-05T13:15:41.206Z,32.00
2022-08-05T13:18:19.703Z,32.10
2022-08-05T13:20:47.492Z,31.80
2022-08-05T13:23:22.014Z,31.60
2022-08-05T13:25:52.229Z,31.30
2022-08-05T13:28:25.952Z,31.40
2022-08-05T13:30:53.335Z,31.40
2022-08-05T13:34:22.320Z,31.40
2022-08-05T13:36:09.197Z,30.90
2022-08-05T13:38:42.512Z,30.80
2022-08-05T13:41:12.871Z,30.90
2022-08-05T13:43:45.792Z,31.10
2022-08-05T13:46:37.931Z,31.10
2022-08-05T13:49:11.750Z,31.10
2022-08-05T13:51:40.913Z,31.10
2022-08-05T13:54:13.496Z,31.20
2022-08-05T13:56:44.923Z,31.20
2022-08-05T13:59:23.990Z,31.20
2022-08-05T14:01:57.826Z,30.90
2022-08-05T14:04:49.446Z,30.60
2022-08-05T14:07:26.322Z,30.20
2022-08-05T14:10:09.593Z,29.90
2022-08-05T14:12:36.823Z,29.60
2022-08-05T14:15:05.839Z,29.50
2022-08-05T14:17:33.163Z,29.40
2022-08-05T14:20:04.517Z,29.50
2022-08-05T14:22:35.218Z,29.50
2022-08-05T14:25:06.155Z,29.30
2022-08-05T14:27:48.374Z,29.20
2022-08-05T14:30:20.265Z,28.80
2022-08-05T14:32:47.656Z,28.50
2022-08-05T14:35:14.429Z,28.40
2022-08-05T14:37:48.232Z,28.40
2022-08-05T14:40:17.139Z,28.30
2022-08-05T14:42:44.262Z,28.30
2022-08-05T14:45:11.040Z,28.30
2022-08-05T14:48:03.447Z,28.40
2022-08-05T14:50:25.417Z,28.60
2022-08-05T14:52:57.761Z,27.80
2022-08-05T14:55:38.648Z,26.90
2022-08-05T14:58:11.169Z,26.10
2022-08-05T15:00:39.788Z,25.50
2022-08-05T15:03:33.675Z,25.10
2022-08-05T15:06:12.641Z,24.80
2022-08-05T15:08:59.470Z,24.80
2022-08-05T15:11:51.404Z,24.90
2022-08-05T15:14:33.631Z,25.10
2022-08-05T15:17:03.893Z,25.50
2022-08-05T15:19:31.227Z,25.70
2022-08-05T15:22:00.266Z,26.00
2022-08-05T15:24:27.937Z,26.20
2022-08-05T15:26:56.046Z,26.30
2022-08-05T15:29:23.823Z,26.50
2022-08-05T15:31:57.334Z,26.60
2022-08-05T15:34:33.081Z,26.70
2022-08-05T15:37:06.462Z,26.90
2022-08-05T15:40:58.219Z,27.20
2022-08-05T15:42:56.822Z,27.60
2022-08-05T15:45:15.112Z,27.80
2022-08-05T15:47:42.561Z,27.90
2022-08-05T15:50:15.431Z,27.80
2022-08-05T15:52:54.238Z,27.80
2022-08-05T15:55:25.028Z,27.80
2022-08-05T15:58:09.126Z,27.70
2022-08-05T16:00:51.027Z,27.80
2022-08-05T16:03:29.987Z,27.70
2022-08-05T16:05:59.396Z,27.70
2022-08-05T16:08:30.480Z,27.60
2022-08-05T16:10:58.114Z,27.40
2022-08-05T16:13:34.235Z,27.20
2022-08-05T16:16:03.327Z,27.10
2022-08-05T16:18:30.985Z,26.90
2022-08-05T16:20:58.622Z,26.70
2022-08-05T16:23:28.476Z,26.60
2022-08-05T16:26:15.287Z,26.50
2022-08-05T16:28:42.571Z,26.30
2022-08-05T16:31:10.563Z,26.20
2022-08-05T16:33:41.513Z,26.00
2022-08-05T16:36:08.746Z,25.90
2022-08-05T16:38:35.729Z,25.80
2022-08-05T16:42:12.315Z,25.80
2022-08-05T16:43:49.426Z,25.80
2022-08-05T16:46:25.716Z,25.80
2022-08-05T16:48:52.609Z,25.70
2022-08-05T16:51:19.496Z,25.70
2022-08-05T16:54:05.366Z,25.60
2022-08-05T16:56:34.962Z,25.60
2022-08-05T16:59:07.688Z,25.60
2022-08-05T17:01:52.795Z,25.50
2022-08-05T17:04:22.186Z,25.40
2022-08-05T17:06:53.454Z,26.20
2022-08-05T17:09:20.578Z,25.10
2022-08-05T17:11:48.651Z,25.00
2022-08-05T17:14:34.347Z,24.90
2022-08-05T17:17:03.825Z,24.80
2022-08-05T17:19:31.359Z,24.60
2022-08-05T17:21:58.609Z,24.60
2022-08-05T17:24:36.446Z,24.60
2022-08-05T17:27:09.162Z,24.60
2022-08-05T17:29:40.915Z,24.60
2022-08-05T17:32:11.714Z,24.50
2022-08-05T17:34:43.939Z,24.50
2022-08-05T17:37:27.268Z,24.50
2022-08-05T17:39:57.490Z,24.30
2022-08-05T17:42:31.868Z,24.30
2022-08-05T17:44:59.474Z,24.20
2022-08-05T17:47:26.686Z,24.20
2022-08-05T17:50:00.523Z,24.20
2022-08-05T17:52:31.882Z,24.20
2022-08-05T17:54:58.749Z,24.20
2022-08-05T17:57:25.392Z,24.20
2022-08-05T18:00:03.224Z,24.20
2022-08-05T18:02:32.934Z,24.30
2022-08-05T18:05:02.834Z,24.10
2022-08-05T18:07:41.175Z,24.10
2022-08-05T18:10:10.284Z,24.60
2022-08-05T18:12:37.500Z,23.80
2022-08-05T18:15:04.845Z,25.70
2022-08-05T18:17:58.684Z,23.60
2022-08-05T18:20:19.765Z,23.50
2022-08-05T18:22:57.541Z,24.40
2022-08-05T18:25:25.061Z,23.40
2022-08-05T18:27:52.872Z,23.00
2022-08-05T18:30:19.759Z,22.90
2022-08-05T18:32:59.995Z,22.90
2022-08-05T18:35:49.746Z,22.80
2022-08-05T18:38:16.509Z,24.90
2022-08-05T18:41:55.216Z,23.20
2022-08-05T18:43:37.935Z,22.50
2022-08-05T18:46:06.969Z,22.40
2022-08-05T18:48:41.789Z,22.30
2022-08-05T18:52:03.113Z,22.30
2022-08-05T18:54:14.749Z,22.20
2022-08-05T18:56:41.824Z,22.20
2022-08-05T18:59:43.324Z,22.20
2022-08-05T19:02:11.059Z,22.20
2022-08-05T19:05:01.076Z,22.00
2022-08-05T19:07:25.078Z,21.90
2022-08-05T19:09:56.750Z,21.90
2022-08-05T19:12:23.804Z,24.40
2022-08-05T19:15:00.481Z,24.30
2022-08-05T19:17:33.669Z,22.90
2022-08-05T19:20:16.273Z,21.80
2022-08-05T19:22:44.505Z,24.80
2022-08-05T19:25:21.743Z,21.90
2022-08-05T19:27:57.026Z,21.50
2022-08-05T19:30:23.856Z,22.70
2022-08-05T19:32:50.905Z,21.40
2022-08-05T19:35:17.592Z,21.30
2022-08-05T19:38:06.881Z,21.30
2022-08-05T19:40:34.912Z,21.30
2022-08-05T19:43:04.731Z,21.40
2022-08-05T19:45:33.204Z,22.40
2022-08-05T19:48:03.547Z,21.30
2022-08-05T19:50:31.973Z,21.30
2022-08-05T19:52:58.757Z,21.20
2022-08-05T19:56:14.579Z,22.70
2022-08-05T19:58:28.474Z,22.10
2022-08-05T20:00:56.604Z,21.00
2022-08-05T20:03:26.211Z,20.80
2022-08-05T20:05:56.663Z,21.70
2022-08-05T20:08:24.814Z,23.10
2022-08-05T20:10:51.710Z,20.60
2022-08-05T20:13:29.782Z,20.70
2022-08-05T20:16:06.098Z,23.00
2022-08-05T20:18:36.327Z,20.50
2022-08-05T20:21:04.721Z,20.40
2022-08-05T20:23:40.383Z,20.50
2022-08-05T20:26:17.448Z,20.40
2022-08-05T20:28:45.418Z,21.40
2022-08-05T20:31:12.170Z,20.40
2022-08-05T20:33:38.846Z,21.00
2022-08-05T20:36:10.225Z,20.40
2022-08-05T20:38:38.217Z,20.40
2022-08-05T20:41:26.712Z,21.90
2022-08-05T20:43:59.498Z,20.40
2022-08-05T20:46:29.380Z,21.60
2022-08-05T20:48:57.116Z,22.60
2022-08-05T20:51:23.857Z,21.40
2022-08-05T20:53:56.421Z,20.20
2022-08-05T20:56:29.699Z,20.20
2022-08-05T20:59:04.146Z,22.90
2022-08-05T21:01:45.347Z,20.30
2022-08-05T21:04:12.057Z,20.10
2022-08-05T21:06:45.031Z,22.00
2022-08-05T21:09:14.452Z,20.30
2022-08-05T21:12:09.644Z,19.90
2022-08-05T21:14:35.206Z,19.90
2022-08-05T21:17:03.152Z,20.60
2022-08-05T21:19:46.390Z,20.60
2022-08-05T21:22:17.611Z,19.90
2022-08-05T21:24:45.308Z,20.50
2022-08-05T21:27:15.977Z,20.50
2022-08-05T21:29:43.289Z,21.20
2022-08-05T21:32:17.214Z,19.80
2022-08-05T21:35:06.950Z,19.70
2022-08-05T21:37:33.901Z,19.70
2022-08-05T21:40:04.490Z,20.60
2022-08-05T21:42:44.537Z,22.70
2022-08-05T21:45:11.915Z,19.60
2022-08-05T21:47:56.552Z,19.60
2022-08-05T21:50:28.100Z,19.70
2022-08-05T21:52:59.088Z,19.60
2022-08-05T21:56:00.927Z,21.10
2022-08-05T21:58:19.269Z,19.50
2022-08-05T22:00:51.264Z,20.40
2022-08-05T22:03:18.293Z,19.50
2022-08-05T22:06:02.236Z,19.50
2022-08-05T22:08:32.083Z,19.40
2022-08-05T22:10:59.239Z,19.50
2022-08-05T22:14:06.228Z,19.40
2022-08-05T22:16:39.478Z,20.70
2022-08-05T22:18:59.444Z,19.40
2022-08-05T22:21:26.228Z,19.40
2022-08-05T22:24:13.288Z,19.40
2022-08-05T22:27:17.553Z,19.40
2022-08-05T22:29:44.334Z,20.40
2022-08-05T22:32:12.627Z,21.10
2022-08-05T22:34:44.296Z,19.60
2022-08-05T22:37:12.601Z,22.20
2022-08-05T22:39:39.335Z,19.30
2022-08-05T22:42:12.676Z,19.30
2022-08-05T22:44:47.003Z,19.30
2022-08-05T22:47:30.330Z,21.60
2022-08-05T22:50:20.635Z,20.30
2022-08-05T22:52:48.260Z,19.80
2022-08-05T22:55:19.347Z,19.30
2022-08-05T22:57:47.130Z,20.10
2022-08-05T23:00:18.295Z,19.30
2022-08-05T23:02:48.066Z,19.20
2022-08-05T23:05:15.436Z,19.20
2022-08-05T23:07:45.035Z,19.30
2022-08-05T23:10:16.224Z,19.20
2022-08-05T23:12:47.311Z,19.30
2022-08-05T23:15:18.193Z,21.70
2022-08-05T23:18:01.435Z,20.90
2022-08-05T23:20:33.681Z,21.80
2022-08-05T23:23:05.873Z,19.10
2022-08-05T23:25:51.778Z,21.20
2022-08-05T23:28:21.500Z,19.20
2022-08-05T23:30:53.164Z,20.60
2022-08-05T23:33:25.846Z,19.10
2022-08-05T23:36:10.186Z,20.70
2022-08-05T23:38:37.271Z,18.90
2022-08-05T23:41:03.967Z,19.40
2022-08-05T23:43:49.743Z,18.90
2022-08-05T23:46:19.632Z,19.70
2022-08-05T23:49:00.567Z,18.90
2022-08-05T23:51:52.630Z,21.50
2022-08-05T23:54:25.783Z,18.90
2022-08-05T23:56:54.044Z,18.90
2022-08-05T23:59:20.794Z,18.80
